TimeCST,TemperatureF,Dew PointF,Humidity,Sea Level PressureIn,VisibilityMPH,Wind Direction,Wind SpeedMPH,Gust SpeedMPH,PrecipitationIn,Events,Conditions,WindDirDegrees,DateUTC
12:15 AM,8.6,3.2,79,30.39,0.5,North,17.3,-,N/A,Snow,Snow,360,2014-03-02 06:15:00
12:35 AM,6.8,3.2,85,30.38,1.2,North,15.0,21.9,N/A,Snow,Light Snow,360,2014-03-02 06:35:00
12:55 AM,6.8,3.2,85,30.41,1.0,North,17.3,-,N/A,Snow,Light Snow,360,2014-03-02 06:55:00
1:15 AM,6.8,3.2,85,30.43,2.0,North,15.0,20.7,N/A,Snow,Light Snow,350,2014-03-02 07:15:00
1:35 AM,6.8,1.4,79,30.43,1.2,North,15.0,-,N/A,Snow,Light Snow,360,2014-03-02 07:35:00
1:55 AM,5.0,1.4,85,30.39,1.2,North,13.8,20.7,N/A,Snow,Light Snow,10,2014-03-02 07:55:00
2:15 AM,5.0,1.4,85,30.39,1.8,North,16.1,24.2,N/A,Snow,Light Snow,360,2014-03-02 08:15:00
2:35 AM,5.0,-0.4,78,30.39,5.0,North,11.5,19.6,N/A,,Haze,10,2014-03-02 08:35:00
2:55 AM,5.0,-0.4,78,30.41,10.0,North,19.6,-,N/A,,Overcast,360,2014-03-02 08:55:00
3:15 AM,5.0,-0.4,78,30.40,10.0,North,19.6,27.6,N/A,,Unknown,360,2014-03-02 09:15:00
3:35 AM,5.0,-2.2,72,30.40,10.0,North,19.6,23.0,N/A,,Unknown,10,2014-03-02 09:35:00
3:55 AM,5.0,-0.4,78,30.43,10.0,North,17.3,24.2,N/A,,Unknown,350,2014-03-02 09:55:00
4:15 AM,5.0,-0.4,78,30.44,10.0,North,16.1,23.0,N/A,Snow,Light Snow,360,2014-03-02 10:15:00
4:35 AM,5.0,-2.2,72,30.45,7.0,North,19.6,-,N/A,Snow,Light Snow,350,2014-03-02 10:35:00
4:55 AM,5.0,-2.2,72,30.44,7.0,North,17.3,24.2,N/A,Snow,Light Snow,360,2014-03-02 10:55:00
5:15 AM,5.0,-2.2,72,30.45,10.0,North,18.4,21.9,N/A,,Overcast,350,2014-03-02 11:15:00
5:35 AM,5.0,-2.2,72,30.44,10.0,North,17.3,21.9,N/A,,Overcast,360,2014-03-02 11:35:00
5:55 AM,5.0,-4.0,66,30.45,10.0,North,18.4,-,N/A,,Overcast,360,2014-03-02 11:55:00
6:15 AM,5.0,-4.0,66,30.47,10.0,North,17.3,23.0,N/A,,Overcast,350,2014-03-02 12:15:00
6:35 AM,5.0,-4.0,66,30.47,10.0,North,16.1,20.7,N/A,,Overcast,360,2014-03-02 12:35:00
6:55 AM,5.0,-4.0,66,30.48,10.0,North,18.4,-,N/A,,Overcast,360,2014-03-02 12:55:00
7:15 AM,5.0,-5.8,61,30.47,10.0,North,12.7,19.6,N/A,,Unknown,360,2014-03-02 13:15:00
7:35 AM,5.0,-4.0,66,30.49,10.0,North,19.6,24.2,N/A,,Unknown,360,2014-03-02 13:35:00
7:55 AM,5.0,-5.8,61,30.50,10.0,North,15.0,-,N/A,,Unknown,10,2014-03-02 13:55:00
8:15 AM,3.2,-7.6,61,30.51,10.0,North,18.4,-,N/A,,Unknown,360,2014-03-02 14:15:00
8:35 AM,3.2,-7.6,61,30.53,10.0,North,17.3,20.7,N/A,,Overcast,360,2014-03-02 14:35:00
8:55 AM,3.2,-9.4,56,30.53,10.0,North,21.9,32.2,N/A,,Overcast,360,2014-03-02 14:55:00
9:15 AM,3.2,-7.6,61,30.53,10.0,North,16.1,21.9,N/A,,Overcast,360,2014-03-02 15:15:00
9:35 AM,3.2,-7.6,61,30.51,10.0,North,18.4,21.9,N/A,,Overcast,10,2014-03-02 15:35:00
9:55 AM,3.2,-5.8,66,30.53,10.0,North,15.0,-,N/A,,Overcast,360,2014-03-02 15:55:00
10:15 AM,3.2,-7.6,61,30.51,10.0,North,15.0,-,N/A,,Overcast,360,2014-03-02 16:15:00
10:35 AM,3.2,-7.6,61,30.52,10.0,North,16.1,-,N/A,,Overcast,350,2014-03-02 16:35:00
10:55 AM,3.2,-9.4,56,30.52,10.0,NNW,18.4,-,N/A,Snow,Light Snow,340,2014-03-02 16:55:00
11:15 AM,3.2,-7.6,61,30.53,4.0,North,18.4,23.0,N/A,Snow,Light Snow,350,2014-03-02 17:15:00
11:35 AM,3.2,-7.6,61,30.52,2.0,North,16.1,-,N/A,Snow,Light Snow,360,2014-03-02 17:35:00
11:55 AM,3.2,-5.8,66,30.52,1.2,North,11.5,-,N/A,Snow,Light Snow,10,2014-03-02 17:55:00
12:15 PM,3.2,-4.0,72,30.51,1.0,North,17.3,-,N/A,Snow,Light Snow,350,2014-03-02 18:15:00
12:35 PM,3.2,-4.0,72,30.52,1.5,North,12.7,18.4,N/A,Snow,Light Snow,360,2014-03-02 18:35:00
12:55 PM,3.2,-4.0,72,30.52,1.5,NNW,12.7,17.3,N/A,Snow,Light Snow,340,2014-03-02 18:55:00
1:15 PM,3.2,-4.0,72,30.50,1.8,NNW,15.0,-,N/A,Snow,Light Snow,340,2014-03-02 19:15:00
1:35 PM,3.2,-4.0,72,30.50,2.5,NNW,15.0,-,N/A,Snow,Light Snow,340,2014-03-02 19:35:00
1:55 PM,3.2,-4.0,72,30.50,1.8,NNW,12.7,-,N/A,Snow,Light Snow,340,2014-03-02 19:55:00
2:15 PM,3.2,-4.0,72,30.51,1.2,NNW,16.1,-,N/A,Snow,Light Snow,340,2014-03-02 20:15:00
2:35 PM,3.2,-7.6,61,30.51,7.0,North,15.0,19.6,N/A,,Overcast,350,2014-03-02 20:35:00
2:55 PM,5.0,-9.4,52,30.49,10.0,North,18.4,-,N/A,,Unknown,360,2014-03-02 20:55:00
3:15 PM,5.0,-11.2,47,30.48,10.0,NNW,18.4,-,N/A,,Unknown,340,2014-03-02 21:15:00
3:35 PM,5.0,-9.4,52,30.47,10.0,North,13.8,-,N/A,,Mostly Cloudy,350,2014-03-02 21:35:00
3:55 PM,5.0,-11.2,47,30.47,10.0,NNW,17.3,-,N/A,,Scattered Clouds,340,2014-03-02 21:55:00
4:15 PM,5.0,-11.2,47,30.47,10.0,North,16.1,20.7,N/A,,Scattered Clouds,350,2014-03-02 22:15:00
4:35 PM,5.0,-9.4,52,30.47,10.0,North,17.3,-,N/A,,Clear,350,2014-03-02 22:35:00
4:55 PM,5.0,-11.2,47,30.49,10.0,North,15.0,20.7,N/A,,Clear,360,2014-03-02 22:55:00
5:15 PM,5.0,-13.0,43,30.47,10.0,North,15.0,-,N/A,,Unknown,360,2014-03-02 23:15:00
5:35 PM,5.0,-11.2,47,30.48,10.0,NNW,15.0,-,N/A,,Clear,340,2014-03-02 23:35:00
5:55 PM,5.0,-9.4,52,30.48,10.0,NNW,11.5,17.3,N/A,,Clear,340,2014-03-02 23:55:00
6:15 PM,5.0,-9.4,52,30.46,10.0,North,13.8,19.6,N/A,,Clear,350,2014-03-03 00:15:00
6:35 PM,5.0,-11.2,47,30.47,10.0,North,15.0,19.6,N/A,,Unknown,360,2014-03-03 00:35:00
6:55 PM,5.0,-11.2,47,30.47,10.0,North,17.3,-,N/A,,Clear,360,2014-03-03 00:55:00
7:15 PM,5.0,-13.0,43,30.49,10.0,North,11.5,-,N/A,,Clear,360,2014-03-03 01:15:00
7:35 PM,3.2,-13.0,47,30.50,10.0,North,9.2,-,N/A,,Clear,10,2014-03-03 01:35:00
7:55 PM,3.2,-13.0,47,30.51,10.0,North,11.5,-,N/A,,Clear,350,2014-03-03 01:55:00
8:15 PM,3.2,-13.0,47,30.51,10.0,North,10.4,-,N/A,,Clear,350,2014-03-03 02:15:00
8:35 PM,3.2,-13.0,47,30.52,10.0,North,10.4,-,N/A,,Clear,350,2014-03-03 02:35:00
8:55 PM,3.2,-13.0,47,30.52,10.0,NNW,11.5,-,N/A,,Clear,340,2014-03-03 02:55:00
9:15 PM,3.2,-13.0,47,30.53,10.0,NNW,9.2,-,N/A,,Clear,340,2014-03-03 03:15:00
9:35 PM,3.2,-11.2,51,30.52,10.0,North,9.2,-,N/A,,Clear,350,2014-03-03 03:35:00
9:55 PM,3.2,-11.2,51,30.52,10.0,NNW,9.2,-,N/A,,Unknown,340,2014-03-03 03:55:00
10:15 PM,3.2,-11.2,51,30.52,10.0,North,13.8,-,N/A,,Clear,350,2014-03-03 04:15:00
10:35 PM,3.2,-9.4,56,30.52,10.0,NNW,15.0,-,N/A,,Clear,340,2014-03-03 04:35:00
10:55 PM,3.2,-9.4,56,30.52,10.0,NNW,15.0,-,N/A,,Clear,340,2014-03-03 04:55:00
11:55 PM,1.4,-11.2,56,30.53,10.0,North,15.0,-,N/A,,Clear,350,2014-03-03 05:55:00